Pagrindinis puslapis
METAR-TAF:

METAR-TAF

Oro uostai :

Tarptautinis Ženevos oro uostas

Ženeva, Šveicarija

platuma: 46-15N, ilguma: 006-08E, Aukštis: 420 m

Dabartinis oras

Ataskaita buvo paskelbta 24 minutes, ne 04:20 UTC
Vėjas 1 kt nuo kintamojo kryptimis
Temperatūra -1°C
Drėgmė 93%
Slėgis 1031 hPa
Matomumas 10 km arba daugiau
nėra debesų žemiau 1500 m ir nėra kamuolinių lietaus debesų

METAR: LSGG 220420Z AUTO VRB01KT CAVOK M01/M02 Q1031 NOSIG

Laikas: 05:44 (04:44 UTC)

Prognozė

Ataskaita buvo paskelbta 2 valandos ir 19 minutes, ne 02:25 UTC
Prognozė galioja nuo 22 metu 03 UTC su 23 metu 09 UTC
Vėjas 3 kt nuo kintamojo kryptimis
Matomumas 10 km arba daugiau
nėra debesų žemiau 1500 m ir nėra kamuolinių lietaus debesų

TAF: LSGG 220225Z 2203/2309 VRB03KT CAVOK TX14/2215Z TNM02/2206Z TNM01/2306Z

Orai ataskaitas ir orų prognozės (METAR, TAF).

turimą stotys yra geltonos ir raudonos taškus žemėlapyje.

Perkelti pele per norėdami pamatyti stoties vardą.

Tada spustelėkite, norėdami matyti oro stebėjimo ir prognozės.

Norėdami pakeisti žemėlapį: spustelėkite ant žalios mygtukų su juodo kryžiaus žemyn,; žalią mygtuką su brūkšneliu, jei norite nutolinti; arba žalių rodyklių gretimoms žemėlapius.


METAR-TAF: